Observations for MANCHESTER INTL, United Kingdom (EGCC)

EGCC 201650Z 31014KT 9999 SCT032 16/07 Q1020 NOSIG  
EGCC 201620Z 30013KT 270V330 9999 SCT032 15/07 Q1019 NOSIG  
EGCC 201550Z AUTO 29015KT 9999 BKN029 BKN049 16/08 Q1019 NOSIG  
EGCC 201520Z AUTO 29012KT 9999 BKN027 16/08 Q1019 NOSIG 
EGCC 201450Z AUTO 29014KT 270V330 9999 SCT025 BKN046 15/08 Q1019
EGCC 201420Z AUTO 29014KT 9999 SCT023 OVC040 15/09 Q1019
EGCC 201350Z AUTO 29014KT 9999 BKN017 OVC034 15/10 Q1019 NOSIG  
EGCC 201320Z AUTO 28013KT 240V300 9999 BKN014 OVC020 15/11 Q1018 BECMG FEW014   
EGCC 201250Z AUTO 29014KT 9999 BKN010 OVC030 15/12 Q1018 BECMG BKN020   
EGCC 201220Z AUTO 29016KT 9999 BKN007 BKN013 BKN017 15/14 Q1017 BECMG BKN020
EGCC 201150Z 27012KT 9999 5000NE VCSH SCT019 BKN025 OVC039 18/14 Q1017 NOSIG
EGCC 201120Z 26016KT 9999 5000N VCSH SCT026 BKN035 21/13 Q1017  
EGCC 201050Z AUTO 24017KT 9999 SCT026 BKN032 20/13 Q1017 NOSIG  
EGCC 201020Z AUTO 25015KT 9999 BKN027 BKN033 OVC040 19/12 Q1017 NOSIG   
EGCC 200950Z AUTO 25019KT 9999 SCT028 BKN037 19/13 Q1016 NOSIG  
EGCC 200920Z AUTO 25021KT 9999 FEW031 SCT037 20/13 Q1016 NOSIG  
EGCC 200850Z AUTO 24019KT 9999 FEW019/// BKN023/// BKN027/// //////TCU 19/14 Q1016 NOSIG
EGCC 200820Z 22009KT 180V240 9999 VCSH BKN016 18/15 Q1016 NOSIG 
EGCC 200750Z AUTO 22012KT 9999 BKN016 OVC026 18/15 Q1016 NOSIG  
EGCC 200720Z AUTO 22012KT 9999 BKN017 OVC027 18/14 Q1015 NOSIG  
EGCC 200650Z AUTO 21011KT 9999 FEW018 BKN023 18/14 Q1015 NOSIG  
EGCC 200620Z AUTO 20009KT 9999 SCT016 BKN026 18/14 Q1015 NOSIG  
EGCC 200550Z AUTO 21010KT 180V240 9999 SCT016 17/14 Q1016   
EGCC 200520Z AUTO 20011KT 9999 FEW027 17/14 Q1016 NOSIG 
EGCC 200450Z AUTO 20010KT 9999 NCD 16/14 Q1016 NOSIG
EGCC 200420Z AUTO 20008KT 9999 FEW017 16/14 Q1016 NOSIG 
EGCC 200350Z AUTO 21008KT 160V230 9999 BKN018 16/14 Q1016 NOSIG 
EGCC 200320Z AUTO 20009KT 160V230 9999 OVC020 17/14 Q1016 NOSIG 
EGCC 200250Z AUTO 20009KT 9999 BKN020 17/14 Q1017 NOSIG 
EGCC 200220Z AUTO 20007KT 170V230 9999 BKN025 OVC039 17/14 Q1017 NOSIG  
EGCC 200150Z AUTO 19006KT 150V220 9999 BKN028 OVC033 17/14 Q1017 NOSIG  
EGCC 200120Z AUTO 18007KT 130V220 9999 OVC029 17/14 Q1017 NOSIG 
EGCC 200050Z AUTO 20007KT 130V230 9999 BKN030 17/14 Q1018 NOSIG 
EGCC 200020Z AUTO 20008KT 9999 SCT030 17/14 Q1018 NOSIG 
EGCC 192350Z AUTO 20007KT 110V230 9999 NCD 17/14 Q1018 NOSIG
EGCC 192320Z AUTO 20008KT 9999 NCD 17/14 Q1018 NOSIG
EGCC 192250Z AUTO 19009KT 160V220 9999 BKN031 18/15 Q1018 NOSIG 
EGCC 192220Z AUTO 20006KT 170V230 9999 BKN030 18/15 Q1019 NOSIG 
EGCC 192150Z AUTO 20008KT 170V230 9999 BKN030 18/15 Q1019 NOSIG 
EGCC 192120Z AUTO 20008KT 9999 BKN029 18/15 Q1019 NOSIG 
EGCC 192050Z AUTO 21009KT 9999 OVC029 19/15 Q1019 NOSIG 
EGCC 192020Z AUTO 20009KT 170V230 9999 OVC029 19/15 Q1019 NOSIG 
EGCC 191950Z AUTO 20009KT 9999 OVC032 19/15 Q1019 NOSIG 
EGCC 191920Z AUTO 21011KT 170V230 9999 BKN036 19/15 Q1019   
EGCC 191850Z AUTO 22013KT 9999 BKN033 20/15 Q1019   
EGCC 191820Z AUTO 22011G21KT 9999 SCT026 BKN031 20/15 Q1019 
EGCC 191750Z AUTO 22010KT 9999 SCT025 BKN029 20/15 Q1019 NOSIG  
EGCC 191720Z AUTO 20009KT 170V230 9999 SCT024 BKN028 BKN041 21/15 Q1019 NOSIG   
EGCC 191650Z AUTO 23013KT 9999 NCD 21/15 Q1019 NOSIG
EGCC 191620Z AUTO 24014KT 9999 FEW029 BKN045 20/15 Q1019 NOSIG